Time;durP1;ratioP1;P1;durP2;ratioP2;P2;SDS_P1;SDS_P2;PMS_P1;PMS_P2;Temp;Humidity;BMP_temperature;BMP_pressure;BME280_temperature;BME280_humidity;BME280_pressure;Samples;Min_cycle;Max_cycle;Signal;HPM_P1;HPM_P2
2022/12/02 00:00:26;;;;;;;59.30;23.63;;;;;;;;;;5009679;28;20732;-68
2022/12/02 00:02:55;;;;;;;58.33;23.57;;;;;;;;;;5014542;28;20589;-67
2022/12/02 00:05:28;;;;;;;61.20;23.07;;;;;;;;;;5021529;28;20625;-69
2022/12/02 00:07:54;;;;;;;60.97;23.50;;;;;;;;;;5012857;28;20213;-69
2022/12/02 00:10:38;;;;;;;54.17;22.40;;;;;;;;;;5025632;28;20203;-68
2022/12/02 00:13:22;;;;;;;58.43;20.87;;;;;;;;;;5026556;28;20193;-68
2022/12/02 00:15:54;;;;;;;54.93;21.20;;;;;;;;;;5025690;28;20200;-68
2022/12/02 00:18:19;;;;;;;55.37;20.43;;;;;;;;;;5023269;28;20190;-68
2022/12/02 00:20:45;;;;;;;52.53;21.07;;;;;;;;;;5032512;28;20668;-68
2022/12/02 00:23:11;;;;;;;51.63;21.07;;;;;;;;;;5023250;28;20218;-68
2022/12/02 00:25:36;;;;;;;51.57;20.37;;;;;;;;;;5031956;28;20181;-68
2022/12/02 00:28:02;;;;;;;47.17;20.30;;;;;;;;;;5021731;28;20186;-68
2022/12/02 00:30:27;;;;;;;47.17;20.43;;;;;;;;;;5032003;28;20196;-68
2022/12/02 00:32:53;;;;;;;51.80;19.83;;;;;;;;;;5026504;28;20213;-68
2022/12/02 00:35:20;;;;;;;47.30;19.23;;;;;;;;;;5021917;28;20194;-67
2022/12/02 00:37:45;;;;;;;51.97;20.37;;;;;;;;;;5026036;28;20186;-67
2022/12/02 00:40:11;;;;;;;47.83;20.30;;;;;;;;;;5040033;28;20933;-67
2022/12/02 00:42:36;;;;;;;48.73;19.83;;;;;;;;;;5022649;28;20209;-68
2022/12/02 00:47:46;;;;;;;47.00;18.83;;;;;;;;;;5028304;28;20223;-68
2022/12/02 00:50:11;;;;;;;48.77;20.20;;;;;;;;;;5026945;28;20433;-69
2022/12/02 00:52:37;;;;;;;45.83;18.53;;;;;;;;;;5026747;28;20223;-67
2022/12/02 00:55:03;;;;;;;46.47;20.97;;;;;;;;;;5025048;28;20310;-67
2022/12/02 00:57:28;;;;;;;45.23;18.90;;;;;;;;;;5023378;28;20189;-67
2022/12/02 00:59:54;;;;;;;45.57;17.97;;;;;;;;;;5024975;28;20210;-68
2022/12/02 01:02:19;;;;;;;41.00;16.53;;;;;;;;;;5024961;28;20210;-68
2022/12/02 01:04:44;;;;;;;42.70;17.13;;;;;;;;;;5025480;28;20288;-68
2022/12/02 01:07:10;;;;;;;41.10;16.07;;;;;;;;;;5019721;28;20281;-67
2022/12/02 01:09:36;;;;;;;41.53;18.17;;;;;;;;;;5027229;28;20178;-67
2022/12/02 01:12:01;;;;;;;41.10;17.13;;;;;;;;;;5025609;28;20214;-68
2022/12/02 01:14:26;;;;;;;43.57;17.90;;;;;;;;;;5028422;28;20273;-68
2022/12/02 01:16:52;;;;;;;41.93;17.27;;;;;;;;;;5022714;28;20190;-67
2022/12/02 01:19:17;;;;;;;39.37;17.37;;;;;;;;;;5018823;28;20286;-67
2022/12/02 01:21:42;;;;;;;44.50;17.90;;;;;;;;;;5036121;28;20248;-68
2022/12/02 01:24:08;;;;;;;41.47;16.77;;;;;;;;;;5017152;28;20240;-67
2022/12/02 01:26:33;;;;;;;38.03;16.80;;;;;;;;;;5024682;28;20268;-67
2022/12/02 01:28:59;;;;;;;41.53;17.50;;;;;;;;;;5023673;28;20318;-67
2022/12/02 01:31:24;;;;;;;38.13;16.80;;;;;;;;;;5016452;28;20207;-68
2022/12/02 01:33:50;;;;;;;40.40;17.13;;;;;;;;;;5038246;28;20185;-67
2022/12/02 01:36:15;;;;;;;38.73;16.97;;;;;;;;;;5031998;28;20546;-68
2022/12/02 01:38:40;;;;;;;37.87;17.27;;;;;;;;;;5036707;28;20197;-68
2022/12/02 01:41:06;;;;;;;40.77;17.43;;;;;;;;;;5022020;28;20206;-67
2022/12/02 01:43:32;;;;;;;38.00;16.33;;;;;;;;;;5020979;28;20186;-67
2022/12/02 01:45:57;;;;;;;40.93;17.20;;;;;;;;;;5032624;28;20186;-68
2022/12/02 01:48:23;;;;;;;38.67;17.07;;;;;;;;;;5025502;28;20189;-68
2022/12/02 01:50:48;;;;;;;40.97;17.53;;;;;;;;;;5021740;28;20193;-68
2022/12/02 01:53:15;;;;;;;39.33;17.23;;;;;;;;;;5028702;28;20532;-67
2022/12/02 01:55:40;;;;;;;39.50;17.57;;;;;;;;;;5029539;28;20744;-68
2022/12/02 01:58:10;;;;;;;40.60;16.73;;;;;;;;;;5018336;28;20228;-68
2022/12/02 02:00:35;;;;;;;37.63;17.63;;;;;;;;;;5028575;28;20348;-68
2022/12/02 02:03:01;;;;;;;39.33;16.80;;;;;;;;;;5025425;28;20667;-68
2022/12/02 02:05:28;;;;;;;40.17;16.87;;;;;;;;;;5029382;28;20376;-68
2022/12/02 02:07:57;;;;;;;39.30;16.80;;;;;;;;;;5025955;28;20194;-68
2022/12/02 02:10:24;;;;;;;38.47;16.90;;;;;;;;;;5029960;28;20200;-68
2022/12/02 02:12:50;;;;;;;37.53;16.50;;;;;;;;;;5027691;28;20642;-68
2022/12/02 02:15:17;;;;;;;37.60;16.30;;;;;;;;;;5042037;28;20190;-68
2022/12/02 02:17:43;;;;;;;42.20;17.73;;;;;;;;;;5027596;28;20583;-68
2022/12/02 02:20:13;;;;;;;35.80;15.60;;;;;;;;;;5024687;28;20233;-67
2022/12/02 02:23:05;;;;;;;38.10;16.80;;;;;;;;;;5025094;28;20530;-67
2022/12/02 02:25:32;;;;;;;42.53;17.13;;;;;;;;;;5017061;28;20190;-67
2022/12/02 02:27:59;;;;;;;34.50;15.60;;;;;;;;;;5023613;28;20185;-67
2022/12/02 02:30:30;;;;;;;37.90;16.07;;;;;;;;;;5025240;28;20248;-67
2022/12/02 02:32:56;;;;;;;38.57;17.10;;;;;;;;;;5027884;28;20633;-67
2022/12/02 02:35:22;;;;;;;38.60;17.30;;;;;;;;;;5035350;28;20194;-67
2022/12/02 02:37:49;;;;;;;40.70;17.50;;;;;;;;;;5038981;28;20224;-67
2022/12/02 02:40:16;;;;;;;44.80;17.73;;;;;;;;;;5028483;28;20201;-67
2022/12/02 02:42:48;;;;;;;41.07;17.40;;;;;;;;;;5024943;28;20509;-67
2022/12/02 02:45:13;;;;;;;38.63;16.90;;;;;;;;;;5028198;28;20205;-68
2022/12/02 02:47:39;;;;;;;44.60;17.57;;;;;;;;;;5028936;28;20178;-67
2022/12/02 02:50:05;;;;;;;45.17;18.87;;;;;;;;;;5027719;28;20192;-68
2022/12/02 02:52:31;;;;;;;46.80;17.33;;;;;;;;;;5026680;28;20241;-67
2022/12/02 02:54:56;;;;;;;43.50;17.17;;;;;;;;;;5029265;28;20185;-67
2022/12/02 02:57:22;;;;;;;44.60;18.23;;;;;;;;;;5042125;28;20641;-68
2022/12/02 02:59:50;;;;;;;45.10;19.00;;;;;;;;;;5025922;28;20624;-68
2022/12/02 03:02:16;;;;;;;44.80;18.20;;;;;;;;;;5026437;28;20214;-67
2022/12/02 03:04:42;;;;;;;53.33;20.03;;;;;;;;;;5037239;28;20200;-67
2022/12/02 03:07:08;;;;;;;53.87;20.80;;;;;;;;;;5025940;28;20242;-67
2022/12/02 03:09:33;;;;;;;43.23;19.43;;;;;;;;;;5026383;28;20186;-67
2022/12/02 03:11:59;;;;;;;49.73;21.13;;;;;;;;;;5028298;28;20200;-67
2022/12/02 03:14:25;;;;;;;51.03;20.57;;;;;;;;;;5028443;28;20663;-67
2022/12/02 03:16:52;;;;;;;51.80;21.07;;;;;;;;;;5027431;28;20220;-68
2022/12/02 03:19:17;;;;;;;57.10;22.60;;;;;;;;;;5028349;28;20186;-67
2022/12/02 03:21:43;;;;;;;54.47;23.20;;;;;;;;;;5030855;28;20719;-67
2022/12/02 03:24:09;;;;;;;60.10;23.30;;;;;;;;;;5026359;28;20274;-67
2022/12/02 03:26:35;;;;;;;55.30;22.10;;;;;;;;;;5029739;28;20277;-67
2022/12/02 03:29:03;;;;;;;59.33;23.37;;;;;;;;;;5033390;28;20517;-67
2022/12/02 03:31:29;;;;;;;55.67;22.40;;;;;;;;;;5027236;28;20182;-69
2022/12/02 03:33:55;;;;;;;57.57;22.60;;;;;;;;;;5018029;28;20570;-67
2022/12/02 03:36:22;;;;;;;57.00;21.47;;;;;;;;;;5024159;28;20182;-67
2022/12/02 03:38:47;;;;;;;59.47;22.60;;;;;;;;;;5025626;28;20204;-67
2022/12/02 03:41:13;;;;;;;52.57;22.20;;;;;;;;;;5024084;28;20214;-67
2022/12/02 03:43:38;;;;;;;53.27;21.63;;;;;;;;;;5021046;28;20221;-67
2022/12/02 03:46:05;;;;;;;54.03;21.47;;;;;;;;;;5029456;28;20192;-67
2022/12/02 03:48:32;;;;;;;53.37;20.73;;;;;;;;;;5025142;28;20595;-69
2022/12/02 03:50:57;;;;;;;58.43;21.87;;;;;;;;;;5029830;28;20500;-67
2022/12/02 03:53:23;;;;;;;54.13;20.83;;;;;;;;;;5025237;28;20198;-67
2022/12/02 03:55:48;;;;;;;56.47;21.60;;;;;;;;;;5026880;28;20284;-67
2022/12/02 03:58:14;;;;;;;54.93;21.43;;;;;;;;;;5029800;28;20249;-67
2022/12/02 04:00:39;;;;;;;52.17;21.57;;;;;;;;;;5025030;28;20233;-67
2022/12/02 04:03:05;;;;;;;57.40;21.63;;;;;;;;;;5025694;28;20218;-67
2022/12/02 04:05:31;;;;;;;57.50;21.33;;;;;;;;;;5025279;28;20458;-67
2022/12/02 04:07:56;;;;;;;53.00;20.33;;;;;;;;;;5026072;28;20192;-67
2022/12/02 04:10:22;;;;;;;54.07;19.23;;;;;;;;;;5025348;28;20205;-67
2022/12/02 04:12:47;;;;;;;59.70;21.67;;;;;;;;;;5024751;28;20182;-67
2022/12/02 04:15:12;;;;;;;52.07;21.03;;;;;;;;;;5025188;28;20193;-67
2022/12/02 04:17:38;;;;;;;58.17;20.77;;;;;;;;;;5026845;28;21025;-67
2022/12/02 04:20:05;;;;;;;51.60;21.00;;;;;;;;;;5030400;28;20212;-68
2022/12/02 04:22:30;;;;;;;56.40;20.70;;;;;;;;;;5033653;28;20281;-67
2022/12/02 04:24:59;;;;;;;52.97;20.27;;;;;;;;;;5023874;28;20304;-67
2022/12/02 04:27:25;;;;;;;54.30;20.57;;;;;;;;;;5036267;28;20209;-68
2022/12/02 04:29:51;;;;;;;55.00;20.90;;;;;;;;;;5016644;28;20298;-67
2022/12/02 04:32:16;;;;;;;54.07;20.07;;;;;;;;;;5025095;28;20273;-67
2022/12/02 04:34:42;;;;;;;49.73;19.80;;;;;;;;;;5017637;28;20719;-68
2022/12/02 04:37:07;;;;;;;49.07;18.63;;;;;;;;;;5025498;28;20455;-67
2022/12/02 04:39:32;;;;;;;48.00;19.27;;;;;;;;;;5027497;28;20192;-67
2022/12/02 04:41:58;;;;;;;48.60;18.27;;;;;;;;;;5028573;28;20213;-67
2022/12/02 04:44:23;;;;;;;46.53;18.03;;;;;;;;;;5015173;28;20547;-67
2022/12/02 04:46:48;;;;;;;44.17;17.57;;;;;;;;;;5026873;28;20635;-68
2022/12/02 04:49:14;;;;;;;44.37;18.07;;;;;;;;;;5026929;28;20289;-67
2022/12/02 04:51:40;;;;;;;43.33;17.00;;;;;;;;;;5026232;28;20567;-68
2022/12/02 04:54:05;;;;;;;47.07;17.10;;;;;;;;;;5023363;28;20684;-67
2022/12/02 04:56:30;;;;;;;46.83;17.47;;;;;;;;;;5025155;28;20269;-67
2022/12/02 04:58:56;;;;;;;48.87;18.53;;;;;;;;;;5029333;28;20187;-69
2022/12/02 05:01:21;;;;;;;46.67;18.10;;;;;;;;;;5020282;28;20657;-69
2022/12/02 05:03:46;;;;;;;39.40;17.47;;;;;;;;;;5024253;28;20201;-69
2022/12/02 05:06:12;;;;;;;43.07;17.83;;;;;;;;;;5027881;28;20190;-67
2022/12/02 05:08:37;;;;;;;41.77;18.23;;;;;;;;;;5034061;28;20186;-68
2022/12/02 05:11:02;;;;;;;42.37;17.43;;;;;;;;;;5025201;28;20300;-67
2022/12/02 05:13:28;;;;;;;48.23;18.07;;;;;;;;;;5031019;28;20222;-67
2022/12/02 05:15:53;;;;;;;49.47;20.33;;;;;;;;;;5022796;28;20193;-67
2022/12/02 05:18:19;;;;;;;49.93;19.50;;;;;;;;;;5026010;28;20187;-68
2022/12/02 05:20:44;;;;;;;45.33;17.87;;;;;;;;;;5036765;28;20267;-68
2022/12/02 05:23:09;;;;;;;43.03;17.77;;;;;;;;;;5028565;28;20646;-68
2022/12/02 05:25:35;;;;;;;53.20;18.70;;;;;;;;;;5034710;28;20186;-67
2022/12/02 05:28:00;;;;;;;56.47;20.70;;;;;;;;;;5042934;28;20178;-68
2022/12/02 05:30:26;;;;;;;55.73;19.30;;;;;;;;;;5023417;28;20190;-67
2022/12/02 05:32:51;;;;;;;49.80;18.50;;;;;;;;;;5032258;28;20189;-68
2022/12/02 05:35:16;;;;;;;56.87;20.20;;;;;;;;;;5026732;28;20189;-68
2022/12/02 05:37:42;;;;;;;51.80;18.87;;;;;;;;;;5017948;28;21389;-68
2022/12/02 05:40:08;;;;;;;60.03;20.63;;;;;;;;;;5013164;28;20261;-68
2022/12/02 05:42:33;;;;;;;57.40;20.57;;;;;;;;;;5027828;28;20245;-67
2022/12/02 05:45:05;;;;;;;63.13;21.37;;;;;;;;;;5026317;28;20206;-68
2022/12/02 05:47:31;;;;;;;55.97;19.30;;;;;;;;;;5029211;28;20186;-68
2022/12/02 05:49:58;;;;;;;63.97;21.33;;;;;;;;;;5027869;28;20267;-68
2022/12/02 05:52:28;;;;;;;58.60;19.23;;;;;;;;;;5025305;28;20261;-68
2022/12/02 05:54:57;;;;;;;54.43;20.30;;;;;;;;;;5020049;28;20197;-68
2022/12/02 05:57:30;;;;;;;55.40;19.23;;;;;;;;;;5024333;28;20571;-68
2022/12/02 06:00:09;;;;;;;62.20;21.20;;;;;;;;;;5021338;28;20280;-68
2022/12/02 06:02:41;;;;;;;54.87;20.30;;;;;;;;;;5028348;28;20259;-68
2022/12/02 06:05:36;;;;;;;58.17;20.00;;;;;;;;;;5026676;28;20220;-68
2022/12/02 06:08:16;;;;;;;53.87;19.73;;;;;;;;;;5017654;28;20198;-68
2022/12/02 06:10:47;;;;;;;60.97;19.57;;;;;;;;;;5013859;28;20672;-68
2022/12/02 06:13:25;;;;;;;66.20;21.43;;;;;;;;;;5010429;28;20174;-68
2022/12/02 06:15:51;;;;;;;60.77;20.60;;;;;;;;;;5022414;28;20636;-67
2022/12/02 06:18:28;;;;;;;60.00;22.00;;;;;;;;;;5013877;28;20573;-67
2022/12/02 06:20:57;;;;;;;61.40;21.07;;;;;;;;;;5013457;28;20387;-68
2022/12/02 06:23:25;;;;;;;62.87;21.40;;;;;;;;;;5023774;28;20190;-68
2022/12/02 06:25:52;;;;;;;60.57;21.70;;;;;;;;;;5015956;28;20186;-68
2022/12/02 06:28:37;;;;;;;66.67;22.93;;;;;;;;;;5024404;28;20185;-68
2022/12/02 06:31:36;;;;;;;63.50;22.03;;;;;;;;;;5022444;28;20196;-68
2022/12/02 06:34:32;;;;;;;69.93;22.33;;;;;;;;;;5030312;28;20245;-67
2022/12/02 06:37:08;;;;;;;70.20;21.07;;;;;;;;;;5029614;28;20193;-67
2022/12/02 06:39:34;;;;;;;66.20;20.93;;;;;;;;;;5010230;28;20191;-68
2022/12/02 06:42:01;;;;;;;70.63;23.13;;;;;;;;;;5009434;28;20527;-67
2022/12/02 06:47:36;;;;;;;58.60;20.87;;;;;;;;;;5012045;28;20772;-68
2022/12/02 06:50:04;;;;;;;68.00;22.50;;;;;;;;;;5010619;28;20183;-67
2022/12/02 06:52:33;;;;;;;80.97;23.10;;;;;;;;;;5013547;28;20679;-67
2022/12/02 06:54:59;;;;;;;69.87;22.73;;;;;;;;;;5011566;28;20344;-68
2022/12/02 06:57:24;;;;;;;58.17;21.63;;;;;;;;;;5025162;28;20200;-68
2022/12/02 06:59:51;;;;;;;68.20;23.00;;;;;;;;;;5007507;28;20369;-68
2022/12/02 07:02:27;;;;;;;69.90;24.63;;;;;;;;;;5012296;28;20215;-68
2022/12/02 07:04:54;;;;;;;68.90;23.80;;;;;;;;;;5012161;28;20209;-68
2022/12/02 07:07:22;;;;;;;73.43;24.90;;;;;;;;;;5027745;28;20611;-67
2022/12/02 07:09:57;;;;;;;68.47;22.23;;;;;;;;;;5028484;28;20269;-67
2022/12/02 07:12:29;;;;;;;65.17;22.23;;;;;;;;;;5022275;28;20210;-68
2022/12/02 07:14:57;;;;;;;70.37;24.30;;;;;;;;;;5011666;28;20189;-68
2022/12/02 07:17:36;;;;;;;67.03;22.47;;;;;;;;;;5023427;28;20186;-68
2022/12/02 07:20:04;;;;;;;66.43;23.43;;;;;;;;;;5027242;28;20186;-69
2022/12/02 07:22:34;;;;;;;75.07;24.07;;;;;;;;;;5017948;28;20255;-68
2022/12/02 07:25:09;;;;;;;71.37;24.20;;;;;;;;;;5011285;28;20618;-68
2022/12/02 07:27:39;;;;;;;65.47;23.47;;;;;;;;;;5010090;28;20202;-68
2022/12/02 07:30:25;;;;;;;73.07;24.17;;;;;;;;;;5009765;28;20190;-68
2022/12/02 07:32:51;;;;;;;71.03;24.67;;;;;;;;;;5014327;28;20330;-68
2022/12/02 07:35:16;;;;;;;71.30;24.33;;;;;;;;;;5012356;28;20273;-68
2022/12/02 07:37:42;;;;;;;74.07;26.67;;;;;;;;;;5023799;28;20269;-68
2022/12/02 07:40:08;;;;;;;78.57;25.00;;;;;;;;;;5017829;28;20245;-68
2022/12/02 07:42:33;;;;;;;67.53;24.17;;;;;;;;;;5021156;28;20251;-68
2022/12/02 07:44:58;;;;;;;76.93;25.50;;;;;;;;;;5013743;28;20190;-67
2022/12/02 07:47:24;;;;;;;71.93;24.27;;;;;;;;;;5010893;28;20222;-68
2022/12/02 07:49:49;;;;;;;69.70;24.70;;;;;;;;;;5012028;28;20324;-68
2022/12/02 07:52:14;;;;;;;69.97;23.10;;;;;;;;;;5016238;28;20209;-68
2022/12/02 07:54:40;;;;;;;69.93;24.47;;;;;;;;;;5012826;28;20190;-68
2022/12/02 07:57:05;;;;;;;65.87;23.23;;;;;;;;;;5011903;28;20185;-68
2022/12/02 07:59:30;;;;;;;69.50;25.00;;;;;;;;;;5017462;28;20217;-68
2022/12/02 08:01:56;;;;;;;66.17;23.10;;;;;;;;;;5016191;28;20226;-68
2022/12/02 08:04:21;;;;;;;61.93;23.43;;;;;;;;;;5018335;28;20198;-68
2022/12/02 08:06:46;;;;;;;68.17;24.73;;;;;;;;;;5017091;28;20205;-68
2022/12/02 08:09:12;;;;;;;62.97;23.07;;;;;;;;;;5009881;28;20190;-68
2022/12/02 08:11:37;;;;;;;69.53;23.60;;;;;;;;;;5017472;28;20183;-68
2022/12/02 08:14:03;;;;;;;71.53;24.10;;;;;;;;;;5025756;28;20193;-68
2022/12/02 08:16:28;;;;;;;66.27;23.47;;;;;;;;;;5011073;28;20222;-68
2022/12/02 08:18:53;;;;;;;66.67;22.80;;;;;;;;;;5016502;28;20198;-69
2022/12/02 08:21:19;;;;;;;65.17;21.67;;;;;;;;;;5009985;28;20341;-68
2022/12/02 08:23:44;;;;;;;62.47;22.10;;;;;;;;;;5018017;28;20198;-68
2022/12/02 08:26:09;;;;;;;60.73;20.07;;;;;;;;;;5013274;28;20240;-69
2022/12/02 08:28:35;;;;;;;54.53;20.83;;;;;;;;;;5012319;28;20186;-68
2022/12/02 08:31:00;;;;;;;61.30;21.90;;;;;;;;;;5014682;28;20228;-68
2022/12/02 08:33:26;;;;;;;60.33;20.97;;;;;;;;;;5022290;28;20563;-68
2022/12/02 08:35:51;;;;;;;58.10;20.73;;;;;;;;;;5024630;28;20287;-68
2022/12/02 08:38:16;;;;;;;57.17;20.00;;;;;;;;;;5019844;28;20225;-68
2022/12/02 08:40:42;;;;;;;55.80;19.83;;;;;;;;;;5016144;28;20280;-68
2022/12/02 08:43:08;;;;;;;60.30;19.80;;;;;;;;;;5021355;28;20202;-68
2022/12/02 08:45:33;;;;;;;62.20;20.40;;;;;;;;;;5019560;28;20360;-68
2022/12/02 08:47:58;;;;;;;55.50;19.33;;;;;;;;;;5010761;28;20201;-68
2022/12/02 08:50:24;;;;;;;62.03;21.07;;;;;;;;;;5015985;28;20182;-68
2022/12/02 08:52:49;;;;;;;61.30;19.03;;;;;;;;;;5018443;28;20244;-68
2022/12/02 08:55:15;;;;;;;52.50;18.07;;;;;;;;;;5013012;28;20181;-68
2022/12/02 08:57:40;;;;;;;59.20;20.53;;;;;;;;;;5010562;28;20193;-68
2022/12/02 09:00:07;;;;;;;57.33;19.13;;;;;;;;;;5011551;28;20241;-68
2022/12/02 09:02:33;;;;;;;55.67;18.87;;;;;;;;;;5012092;28;20213;-68
2022/12/02 09:04:58;;;;;;;57.43;19.67;;;;;;;;;;5012925;28;20222;-68
2022/12/02 09:07:23;;;;;;;56.67;19.57;;;;;;;;;;5019946;28;20695;-68
2022/12/02 09:09:49;;;;;;;65.57;21.63;;;;;;;;;;5007898;28;20201;-68
2022/12/02 09:12:14;;;;;;;59.27;18.63;;;;;;;;;;5009713;28;20631;-68
2022/12/02 09:14:39;;;;;;;52.97;17.70;;;;;;;;;;5021722;28;20257;-68
2022/12/02 09:17:05;;;;;;;60.50;19.13;;;;;;;;;;5025794;28;20182;-68
2022/12/02 09:19:30;;;;;;;63.87;19.93;;;;;;;;;;5025072;28;20205;-68
2022/12/02 09:21:55;;;;;;;57.90;18.60;;;;;;;;;;5020884;28;20247;-68
2022/12/02 09:24:21;;;;;;;61.37;21.67;;;;;;;;;;5015060;28;20218;-68
2022/12/02 09:26:46;;;;;;;64.80;21.30;;;;;;;;;;5009320;28;20434;-68
2022/12/02 09:29:12;;;;;;;64.13;20.07;;;;;;;;;;5007443;28;20677;-68
2022/12/02 09:31:37;;;;;;;65.73;21.53;;;;;;;;;;5008818;28;20328;-68
2022/12/02 09:34:03;;;;;;;64.67;22.03;;;;;;;;;;5016136;28;20595;-68
2022/12/02 09:36:28;;;;;;;68.80;22.33;;;;;;;;;;5010748;28;20609;-68
2022/12/02 09:38:53;;;;;;;66.87;21.63;;;;;;;;;;5018575;28;20208;-69
2022/12/02 09:41:19;;;;;;;67.87;22.93;;;;;;;;;;5022012;28;20259;-69
2022/12/02 09:43:44;;;;;;;69.33;19.97;;;;;;;;;;5010926;28;20187;-68
2022/12/02 09:46:09;;;;;;;65.33;20.47;;;;;;;;;;5011490;28;20197;-68
2022/12/02 09:48:36;;;;;;;63.07;21.00;;;;;;;;;;5016439;28;20191;-68
2022/12/02 09:51:01;;;;;;;64.13;21.60;;;;;;;;;;5008341;28;20197;-68
2022/12/02 09:53:32;;;;;;;63.47;22.67;;;;;;;;;;5010990;28;20233;-69
2022/12/02 09:55:57;;;;;;;68.47;20.43;;;;;;;;;;5016343;28;20197;-69
2022/12/02 09:58:22;;;;;;;62.30;20.63;;;;;;;;;;5011771;28;20269;-68
2022/12/02 10:00:51;;;;;;;59.27;20.50;;;;;;;;;;5011306;28;20661;-68
2022/12/02 10:03:21;;;;;;;52.93;19.50;;;;;;;;;;5011117;28;20218;-68
2022/12/02 10:05:46;;;;;;;64.50;21.30;;;;;;;;;;5015346;28;20614;-68
2022/12/02 10:08:21;;;;;;;56.30;19.47;;;;;;;;;;5013070;28;20228;-68
2022/12/02 10:10:47;;;;;;;60.67;20.90;;;;;;;;;;5013704;28;20205;-68
2022/12/02 10:13:18;;;;;;;51.50;18.63;;;;;;;;;;5015748;28;20553;-68
2022/12/02 10:15:44;;;;;;;49.53;17.40;;;;;;;;;;5012438;28;20190;-68
2022/12/02 10:18:16;;;;;;;53.50;16.27;;;;;;;;;;5011319;28;20183;-68
2022/12/02 10:20:42;;;;;;;45.93;15.97;;;;;;;;;;5017653;28;20585;-68
2022/12/02 10:23:22;;;;;;;47.80;17.87;;;;;;;;;;5017275;28;20306;-68
2022/12/02 10:25:53;;;;;;;53.63;15.80;;;;;;;;;;5032343;28;20641;-68
2022/12/02 10:28:24;;;;;;;47.23;15.87;;;;;;;;;;5026069;28;20171;-68
2022/12/02 10:30:53;;;;;;;38.73;13.70;;;;;;;;;;5022169;28;20207;-68
2022/12/02 10:33:24;;;;;;;32.17;12.80;;;;;;;;;;5032819;28;20178;-68
2022/12/02 10:35:50;;;;;;;32.63;12.10;;;;;;;;;;5019841;28;20289;-68
2022/12/02 10:38:37;;;;;;;38.87;12.83;;;;;;;;;;5024810;28;20190;-68
2022/12/02 10:41:14;;;;;;;36.60;10.97;;;;;;;;;;5018608;28;20256;-68
2022/12/02 10:44:01;;;;;;;32.00;11.50;;;;;;;;;;5014758;28;20190;-68
2022/12/02 10:46:27;;;;;;;34.60;11.50;;;;;;;;;;5022505;28;20189;-68
2022/12/02 10:48:52;;;;;;;33.67;12.63;;;;;;;;;;5031609;28;20497;-68
2022/12/02 10:51:20;;;;;;;37.67;12.60;;;;;;;;;;5024701;28;20713;-68
2022/12/02 10:53:50;;;;;;;28.37;11.23;;;;;;;;;;5045526;28;20192;-68
2022/12/02 10:56:18;;;;;;;34.17;11.00;;;;;;;;;;5033397;28;20183;-68
2022/12/02 10:58:44;;;;;;;30.33;10.33;;;;;;;;;;5027861;28;20668;-68
2022/12/02 11:01:11;;;;;;;29.67;9.90;;;;;;;;;;5025033;28;20526;-68
2022/12/02 11:03:38;;;;;;;31.77;10.80;;;;;;;;;;5024813;28;20221;-68
2022/12/02 11:06:06;;;;;;;29.23;10.47;;;;;;;;;;5035825;28;20611;-68
2022/12/02 11:08:31;;;;;;;32.13;10.67;;;;;;;;;;5040425;28;20209;-68
2022/12/02 11:11:15;;;;;;;29.80;10.87;;;;;;;;;;5029876;28;20222;-68
2022/12/02 11:13:57;;;;;;;27.37;9.93;;;;;;;;;;5043021;28;20185;-67
2022/12/02 11:16:26;;;;;;;32.37;10.20;;;;;;;;;;5014039;28;20608;-69
2022/12/02 11:19:03;;;;;;;30.70;10.33;;;;;;;;;;5010098;28;20199;-68
2022/12/02 11:21:28;;;;;;;33.33;10.00;;;;;;;;;;5021204;28;20678;-69
2022/12/02 11:24:21;;;;;;;26.53;10.13;;;;;;;;;;5009537;28;20198;-69
2022/12/02 11:26:59;;;;;;;28.93;9.43;;;;;;;;;;5012573;28;20664;-68
2022/12/02 11:30:19;;;;;;;33.03;9.80;;;;;;;;;;5029253;28;20224;-68
2022/12/02 11:32:45;;;;;;;30.03;10.97;;;;;;;;;;5030324;28;20193;-69
2022/12/02 11:35:15;;;;;;;33.70;10.20;;;;;;;;;;5025574;28;20600;-68
2022/12/02 11:37:43;;;;;;;26.50;10.40;;;;;;;;;;5010113;28;20237;-68
2022/12/02 11:40:14;;;;;;;26.53;10.60;;;;;;;;;;5032305;28;20189;-67
2022/12/02 11:42:42;;;;;;;28.97;11.10;;;;;;;;;;5021253;28;20590;-67
2022/12/02 11:45:16;;;;;;;29.63;12.23;;;;;;;;;;5030826;28;20182;-67
2022/12/02 11:47:58;;;;;;;28.80;11.70;;;;;;;;;;5013130;28;20188;-67
2022/12/02 11:50:37;;;;;;;30.23;11.37;;;;;;;;;;5022327;28;20260;-67
2022/12/02 11:53:09;;;;;;;30.20;11.57;;;;;;;;;;5026182;28;20204;-68
2022/12/02 11:55:40;;;;;;;30.77;12.80;;;;;;;;;;5012853;28;20182;-68
2022/12/02 11:58:31;;;;;;;27.73;12.00;;;;;;;;;;5014201;28;20198;-67
2022/12/02 12:01:08;;;;;;;29.00;13.27;;;;;;;;;;5022937;28;20597;-68
2022/12/02 12:03:39;;;;;;;30.93;14.30;;;;;;;;;;5027390;28;20200;-67
2022/12/02 12:06:18;;;;;;;36.40;14.83;;;;;;;;;;5026037;28;20241;-67
2022/12/02 12:08:53;;;;;;;38.00;16.13;;;;;;;;;;5030961;28;20531;-67
2022/12/02 12:11:28;;;;;;;36.53;16.27;;;;;;;;;;5023595;28;20597;-67
2022/12/02 12:13:56;;;;;;;38.87;16.83;;;;;;;;;;5025233;28;20197;-67
2022/12/02 12:16:23;;;;;;;33.70;15.43;;;;;;;;;;5025504;28;20204;-67
2022/12/02 12:18:49;;;;;;;38.23;15.93;;;;;;;;;;5016990;28;20815;-68
2022/12/02 12:21:30;;;;;;;41.03;17.03;;;;;;;;;;5014969;28;20705;-67
2022/12/02 12:24:24;;;;;;;38.73;15.40;;;;;;;;;;5020743;28;20190;-67
2022/12/02 12:26:55;;;;;;;43.00;15.80;;;;;;;;;;5037428;28;20198;-67
2022/12/02 12:29:23;;;;;;;50.80;19.90;;;;;;;;;;5010245;28;20221;-68
2022/12/02 12:31:49;;;;;;;48.20;19.67;;;;;;;;;;5023744;28;20178;-67
2022/12/02 12:34:17;;;;;;;48.43;19.97;;;;;;;;;;5033919;28;20182;-67
2022/12/02 12:36:44;;;;;;;52.17;20.07;;;;;;;;;;5030954;28;20188;-67
2022/12/02 12:39:09;;;;;;;50.00;19.53;;;;;;;;;;5039190;28;20276;-67
2022/12/02 12:41:36;;;;;;;48.50;18.83;;;;;;;;;;5029123;28;20281;-67
2022/12/02 12:44:02;;;;;;;50.57;20.00;;;;;;;;;;5018765;28;20190;-68
2022/12/02 12:46:27;;;;;;;60.37;21.83;;;;;;;;;;5026711;28;20317;-68
2022/12/02 12:48:53;;;;;;;61.27;22.90;;;;;;;;;;5022536;28;20263;-67
2022/12/02 12:51:18;;;;;;;61.30;23.17;;;;;;;;;;5023585;28;20190;-67
2022/12/02 12:53:43;;;;;;;62.70;23.97;;;;;;;;;;5017875;28;20181;-67
2022/12/02 12:56:09;;;;;;;63.93;24.73;;;;;;;;;;5026956;28;20232;-67
2022/12/02 12:58:34;;;;;;;74.80;25.53;;;;;;;;;;5033381;28;20205;-67
2022/12/02 13:01:00;;;;;;;70.87;26.33;;;;;;;;;;5029321;28;20256;-67
2022/12/02 13:03:25;;;;;;;66.60;25.70;;;;;;;;;;5014699;28;20272;-67
2022/12/02 13:05:50;;;;;;;70.60;27.30;;;;;;;;;;5028480;28;20189;-67
2022/12/02 13:08:16;;;;;;;74.87;27.80;;;;;;;;;;5024714;28;20198;-67
2022/12/02 13:10:41;;;;;;;72.27;27.03;;;;;;;;;;5021537;28;20609;-67
2022/12/02 13:13:07;;;;;;;79.17;28.50;;;;;;;;;;5019845;28;20182;-67
2022/12/02 13:15:33;;;;;;;77.87;29.50;;;;;;;;;;5020248;28;20198;-67
2022/12/02 13:17:58;;;;;;;81.77;31.37;;;;;;;;;;5024235;28;20209;-67
2022/12/02 13:20:24;;;;;;;83.87;31.17;;;;;;;;;;5032935;28;20209;-67
2022/12/02 13:22:49;;;;;;;76.43;29.80;;;;;;;;;;5020287;28;20289;-67
2022/12/02 13:25:14;;;;;;;78.47;29.77;;;;;;;;;;5021666;28;20646;-67
2022/12/02 13:27:40;;;;;;;81.77;30.03;;;;;;;;;;5021454;28;20246;-69
2022/12/02 13:30:09;;;;;;;85.90;30.67;;;;;;;;;;5028352;28;20190;-67
2022/12/02 13:32:34;;;;;;;85.30;31.47;;;;;;;;;;5029273;28;20205;-67
2022/12/02 13:35:00;;;;;;;81.73;31.43;;;;;;;;;;5037690;28;20221;-68
2022/12/02 13:37:25;;;;;;;82.53;30.57;;;;;;;;;;5027033;28;20277;-68
2022/12/02 13:39:50;;;;;;;89.10;32.57;;;;;;;;;;5043473;28;20185;-67
2022/12/02 13:42:16;;;;;;;85.67;32.50;;;;;;;;;;5034429;28;20252;-67
2022/12/02 13:44:41;;;;;;;90.37;31.10;;;;;;;;;;5030477;28;20243;-68
2022/12/02 13:47:07;;;;;;;87.90;31.30;;;;;;;;;;5027100;28;20685;-68
2022/12/02 13:49:32;;;;;;;92.13;32.27;;;;;;;;;;5022099;28;20264;-68
2022/12/02 13:51:58;;;;;;;88.17;34.50;;;;;;;;;;5011675;28;20178;-68
2022/12/02 13:54:24;;;;;;;88.23;32.27;;;;;;;;;;5029541;28;20232;-68
2022/12/02 13:56:50;;;;;;;92.80;34.57;;;;;;;;;;5028191;28;20194;-68
2022/12/02 13:59:15;;;;;;;88.03;34.60;;;;;;;;;;5019087;28;20523;-68
2022/12/02 14:01:41;;;;;;;87.57;33.20;;;;;;;;;;5027249;28;20270;-68
2022/12/02 14:04:06;;;;;;;90.43;34.20;;;;;;;;;;5014324;28;20209;-68
2022/12/02 14:06:32;;;;;;;88.07;34.80;;;;;;;;;;5030905;28;20279;-68
2022/12/02 14:08:57;;;;;;;93.27;34.20;;;;;;;;;;5015166;28;20796;-68
2022/12/02 14:11:22;;;;;;;86.23;32.63;;;;;;;;;;5024516;28;20208;-68
2022/12/02 14:13:48;;;;;;;84.67;32.30;;;;;;;;;;5025701;28;20222;-68
2022/12/02 14:16:13;;;;;;;95.07;33.73;;;;;;;;;;5028884;28;20193;-68
2022/12/02 14:18:39;;;;;;;92.83;35.40;;;;;;;;;;5027574;28;20225;-68
2022/12/02 14:21:04;;;;;;;84.63;33.13;;;;;;;;;;5023325;28;20194;-68
2022/12/02 14:23:29;;;;;;;86.37;32.70;;;;;;;;;;5025811;28;20210;-69
2022/12/02 14:25:55;;;;;;;82.43;32.20;;;;;;;;;;5024544;28;20537;-68